sensor_id;sensor_type;location;lat;lon;timestamp;P1;durP1;ratioP1;P2;durP2;ratioP2
23586;SDS011;11971;51.148;4.104;2023-04-23T00:02:18;114.63;;;48.45;;
23586;SDS011;11971;51.148;4.104;2023-04-23T00:04:48;121.95;;;49.47;;
23586;SDS011;11971;51.148;4.104;2023-04-23T00:07:18;113.38;;;48.40;;
23586;SDS011;11971;51.148;4.104;2023-04-23T00:09:46;113.35;;;48.58;;
23586;SDS011;11971;51.148;4.104;2023-04-23T00:12:13;114.97;;;49.05;;
23586;SDS011;11971;51.148;4.104;2023-04-23T00:14:40;112.63;;;48.33;;
23586;SDS011;11971;51.148;4.104;2023-04-23T00:17:08;111.53;;;47.63;;
23586;SDS011;11971;51.148;4.104;2023-04-23T00:19:35;112.85;;;46.95;;
23586;SDS011;11971;51.148;4.104;2023-04-23T00:22:01;112.15;;;46.97;;
23586;SDS011;11971;51.148;4.104;2023-04-23T00:24:30;112.60;;;47.10;;
23586;SDS011;11971;51.148;4.104;2023-04-23T00:27:00;109.30;;;47.53;;
23586;SDS011;11971;51.148;4.104;2023-04-23T00:29:27;113.07;;;48.42;;
23586;SDS011;11971;51.148;4.104;2023-04-23T00:31:54;111.90;;;46.97;;
23586;SDS011;11971;51.148;4.104;2023-04-23T00:34:22;111.93;;;47.60;;
23586;SDS011;11971;51.148;4.104;2023-04-23T00:36:51;112.22;;;46.97;;
23586;SDS011;11971;51.148;4.104;2023-04-23T00:39:18;112.22;;;47.13;;
23586;SDS011;11971;51.148;4.104;2023-04-23T00:41:46;112.50;;;47.38;;
23586;SDS011;11971;51.148;4.104;2023-04-23T00:44:13;112.07;;;47.10;;
23586;SDS011;11971;51.148;4.104;2023-04-23T00:46:40;113.55;;;47.65;;
23586;SDS011;11971;51.148;4.104;2023-04-23T00:49:07;106.95;;;46.40;;
23586;SDS011;11971;51.148;4.104;2023-04-23T00:51:34;112.30;;;47.90;;
23586;SDS011;11971;51.148;4.104;2023-04-23T00:54:01;113.10;;;46.70;;
23586;SDS011;11971;51.148;4.104;2023-04-23T00:56:28;117.03;;;48.00;;
23586;SDS011;11971;51.148;4.104;2023-04-23T00:58:56;109.57;;;46.70;;
23586;SDS011;11971;51.148;4.104;2023-04-23T01:01:27;113.70;;;47.55;;
23586;SDS011;11971;51.148;4.104;2023-04-23T01:03:54;109.82;;;46.85;;
23586;SDS011;11971;51.148;4.104;2023-04-23T01:06:21;114.22;;;47.70;;
23586;SDS011;11971;51.148;4.104;2023-04-23T01:08:52;112.43;;;47.35;;
23586;SDS011;11971;51.148;4.104;2023-04-23T01:11:19;113.13;;;47.45;;
23586;SDS011;11971;51.148;4.104;2023-04-23T01:13:46;113.15;;;47.17;;
23586;SDS011;11971;51.148;4.104;2023-04-23T01:16:15;120.15;;;47.58;;
23586;SDS011;11971;51.148;4.104;2023-04-23T01:18:42;108.32;;;46.70;;
23586;SDS011;11971;51.148;4.104;2023-04-23T01:21:10;115.10;;;47.80;;
23586;SDS011;11971;51.148;4.104;2023-04-23T01:23:38;111.05;;;47.25;;
23586;SDS011;11971;51.148;4.104;2023-04-23T01:26:05;108.75;;;47.35;;
23586;SDS011;11971;51.148;4.104;2023-04-23T01:28:32;107.03;;;45.85;;
23586;SDS011;11971;51.148;4.104;2023-04-23T01:31:00;111.68;;;46.40;;
23586;SDS011;11971;51.148;4.104;2023-04-23T01:33:28;111.05;;;47.45;;
23586;SDS011;11971;51.148;4.104;2023-04-23T01:35:55;108.22;;;46.65;;
23586;SDS011;11971;51.148;4.104;2023-04-23T01:38:22;106.68;;;46.47;;
23586;SDS011;11971;51.148;4.104;2023-04-23T01:40:51;109.70;;;47.10;;
23586;SDS011;11971;51.148;4.104;2023-04-23T01:43:18;113.32;;;47.72;;
23586;SDS011;11971;51.148;4.104;2023-04-23T01:45:45;109.78;;;46.65;;
23586;SDS011;11971;51.148;4.104;2023-04-23T01:48:12;114.63;;;48.35;;
23586;SDS011;11971;51.148;4.104;2023-04-23T01:50:39;112.63;;;47.70;;
23586;SDS011;11971;51.148;4.104;2023-04-23T01:53:07;113.43;;;47.03;;
23586;SDS011;11971;51.148;4.104;2023-04-23T01:55:35;111.93;;;47.13;;
23586;SDS011;11971;51.148;4.104;2023-04-23T01:58:05;112.85;;;47.92;;
23586;SDS011;11971;51.148;4.104;2023-04-23T02:00:32;115.82;;;47.80;;
23586;SDS011;11971;51.148;4.104;2023-04-23T02:03:01;113.38;;;48.28;;
23586;SDS011;11971;51.148;4.104;2023-04-23T02:05:28;113.75;;;48.22;;
23586;SDS011;11971;51.148;4.104;2023-04-23T02:07:56;113.05;;;47.75;;
23586;SDS011;11971;51.148;4.104;2023-04-23T02:10:23;112.38;;;47.63;;
23586;SDS011;11971;51.148;4.104;2023-04-23T02:12:50;112.22;;;46.63;;
23586;SDS011;11971;51.148;4.104;2023-04-23T02:15:19;110.15;;;47.08;;
23586;SDS011;11971;51.148;4.104;2023-04-23T02:17:46;111.28;;;46.90;;
23586;SDS011;11971;51.148;4.104;2023-04-23T02:20:15;108.28;;;46.95;;
23586;SDS011;11971;51.148;4.104;2023-04-23T02:22:42;109.13;;;46.63;;
23586;SDS011;11971;51.148;4.104;2023-04-23T02:25:10;108.88;;;46.33;;
23586;SDS011;11971;51.148;4.104;2023-04-23T02:27:39;108.28;;;46.40;;
23586;SDS011;11971;51.148;4.104;2023-04-23T02:30:08;109.75;;;46.10;;
23586;SDS011;11971;51.148;4.104;2023-04-23T02:32:38;108.70;;;47.07;;
23586;SDS011;11971;51.148;4.104;2023-04-23T02:35:06;110.88;;;47.17;;
23586;SDS011;11971;51.148;4.104;2023-04-23T02:37:34;113.00;;;47.65;;
23586;SDS011;11971;51.148;4.104;2023-04-23T02:40:02;111.70;;;46.25;;
23586;SDS011;11971;51.148;4.104;2023-04-23T02:44:57;111.50;;;46.55;;
23586;SDS011;11971;51.148;4.104;2023-04-23T02:47:24;111.00;;;47.00;;
23586;SDS011;11971;51.148;4.104;2023-04-23T02:49:53;108.75;;;46.13;;
23586;SDS011;11971;51.148;4.104;2023-04-23T02:52:22;108.93;;;45.47;;
23586;SDS011;11971;51.148;4.104;2023-04-23T02:54:49;108.57;;;45.92;;
23586;SDS011;11971;51.148;4.104;2023-04-23T02:57:16;110.85;;;45.80;;
23586;SDS011;11971;51.148;4.104;2023-04-23T02:59:43;107.43;;;45.90;;
23586;SDS011;11971;51.148;4.104;2023-04-23T03:02:10;105.75;;;45.65;;
23586;SDS011;11971;51.148;4.104;2023-04-23T03:04:38;110.00;;;46.10;;
23586;SDS011;11971;51.148;4.104;2023-04-23T03:07:07;111.30;;;46.63;;
23586;SDS011;11971;51.148;4.104;2023-04-23T03:09:34;112.05;;;46.05;;
23586;SDS011;11971;51.148;4.104;2023-04-23T03:12:01;103.32;;;45.03;;
23586;SDS011;11971;51.148;4.104;2023-04-23T03:14:29;106.18;;;45.88;;
23586;SDS011;11971;51.148;4.104;2023-04-23T03:16:56;108.57;;;44.88;;
23586;SDS011;11971;51.148;4.104;2023-04-23T03:19:23;107.65;;;45.15;;
23586;SDS011;11971;51.148;4.104;2023-04-23T03:21:51;105.13;;;45.28;;
23586;SDS011;11971;51.148;4.104;2023-04-23T03:24:20;105.95;;;45.05;;
23586;SDS011;11971;51.148;4.104;2023-04-23T03:26:48;104.10;;;43.80;;
23586;SDS011;11971;51.148;4.104;2023-04-23T03:29:15;107.90;;;44.85;;
23586;SDS011;11971;51.148;4.104;2023-04-23T03:31:42;105.13;;;45.08;;
23586;SDS011;11971;51.148;4.104;2023-04-23T03:34:09;103.60;;;44.53;;
23586;SDS011;11971;51.148;4.104;2023-04-23T03:39:05;105.70;;;44.55;;
23586;SDS011;11971;51.148;4.104;2023-04-23T03:41:34;106.55;;;44.20;;
23586;SDS011;11971;51.148;4.104;2023-04-23T03:44:02;115.53;;;45.58;;
23586;SDS011;11971;51.148;4.104;2023-04-23T03:46:31;104.75;;;44.75;;
23586;SDS011;11971;51.148;4.104;2023-04-23T03:49:12;109.93;;;45.33;;
23586;SDS011;11971;51.148;4.104;2023-04-23T03:51:40;103.97;;;44.17;;
23586;SDS011;11971;51.148;4.104;2023-04-23T03:54:10;104.88;;;44.90;;
23586;SDS011;11971;51.148;4.104;2023-04-23T03:56:40;106.28;;;44.40;;
23586;SDS011;11971;51.148;4.104;2023-04-23T03:59:07;107.90;;;43.90;;
23586;SDS011;11971;51.148;4.104;2023-04-23T04:01:34;103.13;;;44.38;;
23586;SDS011;11971;51.148;4.104;2023-04-23T04:04:01;100.70;;;43.85;;
23586;SDS011;11971;51.148;4.104;2023-04-23T04:06:28;101.85;;;43.72;;
23586;SDS011;11971;51.148;4.104;2023-04-23T04:08:55;102.70;;;43.20;;
23586;SDS011;11971;51.148;4.104;2023-04-23T04:11:22;102.20;;;42.80;;
23586;SDS011;11971;51.148;4.104;2023-04-23T04:13:51;101.70;;;42.78;;
23586;SDS011;11971;51.148;4.104;2023-04-23T04:16:19;104.00;;;43.20;;
23586;SDS011;11971;51.148;4.104;2023-04-23T04:18:46;101.57;;;43.03;;
23586;SDS011;11971;51.148;4.104;2023-04-23T04:21:12;100.40;;;42.58;;
23586;SDS011;11971;51.148;4.104;2023-04-23T04:23:40;99.93;;;42.90;;
23586;SDS011;11971;51.148;4.104;2023-04-23T04:26:07;96.97;;;41.97;;
23586;SDS011;11971;51.148;4.104;2023-04-23T04:28:34;103.47;;;42.78;;
23586;SDS011;11971;51.148;4.104;2023-04-23T04:31:03;100.97;;;42.70;;
23586;SDS011;11971;51.148;4.104;2023-04-23T04:33:31;99.38;;;41.40;;
23586;SDS011;11971;51.148;4.104;2023-04-23T04:38:27;97.30;;;41.47;;
23586;SDS011;11971;51.148;4.104;2023-04-23T04:40:54;98.95;;;41.10;;
23586;SDS011;11971;51.148;4.104;2023-04-23T04:43:23;97.70;;;41.55;;
23586;SDS011;11971;51.148;4.104;2023-04-23T04:45:50;99.95;;;41.67;;
23586;SDS011;11971;51.148;4.104;2023-04-23T04:48:19;98.43;;;41.63;;
23586;SDS011;11971;51.148;4.104;2023-04-23T04:50:46;95.95;;;40.83;;
23586;SDS011;11971;51.148;4.104;2023-04-23T04:53:13;100.57;;;41.88;;
23586;SDS011;11971;51.148;4.104;2023-04-23T04:55:40;97.05;;;41.65;;
23586;SDS011;11971;51.148;4.104;2023-04-23T04:58:07;98.00;;;41.67;;
23586;SDS011;11971;51.148;4.104;2023-04-23T05:00:34;102.65;;;42.15;;
23586;SDS011;11971;51.148;4.104;2023-04-23T05:03:01;97.40;;;41.08;;
23586;SDS011;11971;51.148;4.104;2023-04-23T05:05:30;98.68;;;41.00;;
23586;SDS011;11971;51.148;4.104;2023-04-23T05:07:58;98.22;;;41.92;;
23586;SDS011;11971;51.148;4.104;2023-04-23T05:10:26;95.53;;;41.03;;
23586;SDS011;11971;51.148;4.104;2023-04-23T05:12:53;102.63;;;41.33;;
23586;SDS011;11971;51.148;4.104;2023-04-23T05:15:21;102.30;;;40.58;;
23586;SDS011;11971;51.148;4.104;2023-04-23T05:17:48;99.43;;;40.60;;
23586;SDS011;11971;51.148;4.104;2023-04-23T05:20:17;96.95;;;41.53;;
23586;SDS011;11971;51.148;4.104;2023-04-23T05:22:46;96.95;;;41.03;;
23586;SDS011;11971;51.148;4.104;2023-04-23T05:25:13;98.22;;;41.08;;
23586;SDS011;11971;51.148;4.104;2023-04-23T05:27:41;99.28;;;40.92;;
23586;SDS011;11971;51.148;4.104;2023-04-23T05:30:09;95.32;;;40.47;;
23586;SDS011;11971;51.148;4.104;2023-04-23T05:32:37;102.47;;;40.65;;
23586;SDS011;11971;51.148;4.104;2023-04-23T05:35:06;97.68;;;40.78;;
23586;SDS011;11971;51.148;4.104;2023-04-23T05:37:34;98.72;;;40.17;;
23586;SDS011;11971;51.148;4.104;2023-04-23T05:40:02;94.18;;;40.45;;
23586;SDS011;11971;51.148;4.104;2023-04-23T05:42:31;97.50;;;40.67;;
23586;SDS011;11971;51.148;4.104;2023-04-23T05:44:58;99.47;;;41.15;;
23586;SDS011;11971;51.148;4.104;2023-04-23T05:47:25;99.25;;;41.50;;
23586;SDS011;11971;51.148;4.104;2023-04-23T05:49:52;97.72;;;40.95;;
23586;SDS011;11971;51.148;4.104;2023-04-23T05:52:21;100.60;;;41.03;;
23586;SDS011;11971;51.148;4.104;2023-04-23T05:54:49;96.15;;;40.72;;
23586;SDS011;11971;51.148;4.104;2023-04-23T05:57:17;95.95;;;39.90;;
23586;SDS011;11971;51.148;4.104;2023-04-23T05:59:44;107.10;;;41.47;;
23586;SDS011;11971;51.148;4.104;2023-04-23T06:02:11;99.50;;;40.70;;
23586;SDS011;11971;51.148;4.104;2023-04-23T06:04:38;94.35;;;40.03;;
23586;SDS011;11971;51.148;4.104;2023-04-23T06:07:05;100.55;;;40.80;;
23586;SDS011;11971;51.148;4.104;2023-04-23T06:09:32;94.20;;;39.75;;
23586;SDS011;11971;51.148;4.104;2023-04-23T06:11:59;96.82;;;39.88;;
23586;SDS011;11971;51.148;4.104;2023-04-23T06:14:29;98.55;;;39.85;;
23586;SDS011;11971;51.148;4.104;2023-04-23T06:16:55;98.95;;;39.50;;
23586;SDS011;11971;51.148;4.104;2023-04-23T06:19:22;96.28;;;40.22;;
23586;SDS011;11971;51.148;4.104;2023-04-23T06:21:51;96.20;;;38.85;;
23586;SDS011;11971;51.148;4.104;2023-04-23T06:24:18;98.15;;;39.22;;
23586;SDS011;11971;51.148;4.104;2023-04-23T06:26:45;97.38;;;39.22;;
23586;SDS011;11971;51.148;4.104;2023-04-23T06:29:12;97.15;;;38.80;;
23586;SDS011;11971;51.148;4.104;2023-04-23T06:31:40;96.00;;;38.95;;
23586;SDS011;11971;51.148;4.104;2023-04-23T06:34:07;94.53;;;38.63;;
23586;SDS011;11971;51.148;4.104;2023-04-23T06:36:34;94.35;;;38.63;;
23586;SDS011;11971;51.148;4.104;2023-04-23T06:39:01;97.28;;;38.92;;
23586;SDS011;11971;51.148;4.104;2023-04-23T06:41:28;97.03;;;38.15;;
23586;SDS011;11971;51.148;4.104;2023-04-23T06:43:55;96.50;;;38.38;;
23586;SDS011;11971;51.148;4.104;2023-04-23T06:46:21;95.70;;;38.10;;
23586;SDS011;11971;51.148;4.104;2023-04-23T06:48:50;91.80;;;37.75;;
23586;SDS011;11971;51.148;4.104;2023-04-23T06:51:17;95.60;;;37.85;;
23586;SDS011;11971;51.148;4.104;2023-04-23T06:53:43;94.70;;;38.40;;
23586;SDS011;11971;51.148;4.104;2023-04-23T06:56:10;92.38;;;37.78;;
23586;SDS011;11971;51.148;4.104;2023-04-23T06:58:37;92.50;;;37.72;;
23586;SDS011;11971;51.148;4.104;2023-04-23T07:01:05;99.50;;;37.78;;
23586;SDS011;11971;51.148;4.104;2023-04-23T07:03:32;92.80;;;37.72;;
23586;SDS011;11971;51.148;4.104;2023-04-23T07:06:02;95.10;;;38.28;;
23586;SDS011;11971;51.148;4.104;2023-04-23T07:08:29;96.97;;;37.90;;
23586;SDS011;11971;51.148;4.104;2023-04-23T07:10:56;96.50;;;37.58;;
23586;SDS011;11971;51.148;4.104;2023-04-23T07:13:22;94.05;;;37.40;;
23586;SDS011;11971;51.148;4.104;2023-04-23T07:15:49;93.82;;;37.33;;
23586;SDS011;11971;51.148;4.104;2023-04-23T07:18:16;95.20;;;37.38;;
23586;SDS011;11971;51.148;4.104;2023-04-23T07:20:43;95.43;;;37.42;;
23586;SDS011;11971;51.148;4.104;2023-04-23T07:23:11;94.93;;;38.17;;
23586;SDS011;11971;51.148;4.104;2023-04-23T07:25:38;94.88;;;37.72;;
23586;SDS011;11971;51.148;4.104;2023-04-23T07:28:05;93.85;;;37.75;;
23586;SDS011;11971;51.148;4.104;2023-04-23T07:30:32;96.13;;;36.72;;
23586;SDS011;11971;51.148;4.104;2023-04-23T07:32:59;97.40;;;37.83;;
23586;SDS011;11971;51.148;4.104;2023-04-23T07:35:25;94.20;;;37.28;;
23586;SDS011;11971;51.148;4.104;2023-04-23T07:37:52;96.28;;;37.15;;
23586;SDS011;11971;51.148;4.104;2023-04-23T07:40:23;93.03;;;37.00;;
23586;SDS011;11971;51.148;4.104;2023-04-23T07:42:50;98.13;;;37.38;;
23586;SDS011;11971;51.148;4.104;2023-04-23T07:45:17;99.43;;;37.22;;
23586;SDS011;11971;51.148;4.104;2023-04-23T07:47:44;96.57;;;37.28;;
23586;SDS011;11971;51.148;4.104;2023-04-23T07:50:11;95.38;;;37.38;;
23586;SDS011;11971;51.148;4.104;2023-04-23T07:52:39;96.82;;;37.33;;
23586;SDS011;11971;51.148;4.104;2023-04-23T07:55:06;97.60;;;37.28;;
23586;SDS011;11971;51.148;4.104;2023-04-23T07:57:35;96.47;;;37.75;;
23586;SDS011;11971;51.148;4.104;2023-04-23T08:00:02;94.47;;;37.67;;
23586;SDS011;11971;51.148;4.104;2023-04-23T08:02:29;94.78;;;37.58;;
23586;SDS011;11971;51.148;4.104;2023-04-23T08:04:55;96.45;;;37.58;;
23586;SDS011;11971;51.148;4.104;2023-04-23T08:07:22;96.43;;;36.97;;
23586;SDS011;11971;51.148;4.104;2023-04-23T08:09:49;96.65;;;36.97;;
23586;SDS011;11971;51.148;4.104;2023-04-23T08:12:17;95.30;;;37.47;;
23586;SDS011;11971;51.148;4.104;2023-04-23T08:14:47;97.03;;;38.13;;
23586;SDS011;11971;51.148;4.104;2023-04-23T08:17:15;101.60;;;37.53;;
23586;SDS011;11971;51.148;4.104;2023-04-23T08:22:21;108.20;;;41.53;;
23586;SDS011;11971;51.148;4.104;2023-04-23T08:24:48;98.20;;;37.70;;
23586;SDS011;11971;51.148;4.104;2023-04-23T08:27:23;99.65;;;37.83;;
23586;SDS011;11971;51.148;4.104;2023-04-23T08:37:40;97.90;;;38.08;;
23586;SDS011;11971;51.148;4.104;2023-04-23T08:40:08;99.75;;;38.17;;
23586;SDS011;11971;51.148;4.104;2023-04-23T08:42:36;98.97;;;37.95;;
23586;SDS011;11971;51.148;4.104;2023-04-23T08:45:04;100.88;;;37.88;;
23586;SDS011;11971;51.148;4.104;2023-04-23T08:47:33;103.32;;;37.78;;
23586;SDS011;11971;51.148;4.104;2023-04-23T08:50:03;100.47;;;37.78;;
23586;SDS011;11971;51.148;4.104;2023-04-23T08:52:32;97.33;;;38.10;;
23586;SDS011;11971;51.148;4.104;2023-04-23T08:55:03;98.32;;;37.45;;
23586;SDS011;11971;51.148;4.104;2023-04-23T08:57:31;102.43;;;38.22;;
23586;SDS011;11971;51.148;4.104;2023-04-23T08:59:58;98.07;;;37.90;;
23586;SDS011;11971;51.148;4.104;2023-04-23T09:02:28;103.97;;;37.67;;
23586;SDS011;11971;51.148;4.104;2023-04-23T09:05:03;99.88;;;38.45;;
23586;SDS011;11971;51.148;4.104;2023-04-23T09:07:30;100.63;;;38.35;;
23586;SDS011;11971;51.148;4.104;2023-04-23T09:09:58;100.43;;;38.65;;
23586;SDS011;11971;51.148;4.104;2023-04-23T09:12:29;103.70;;;38.53;;
23586;SDS011;11971;51.148;4.104;2023-04-23T09:15:09;102.43;;;37.92;;
23586;SDS011;11971;51.148;4.104;2023-04-23T09:17:38;100.70;;;37.95;;
23586;SDS011;11971;51.148;4.104;2023-04-23T09:20:25;102.07;;;37.83;;
23586;SDS011;11971;51.148;4.104;2023-04-23T09:23:41;99.95;;;38.25;;
23586;SDS011;11971;51.148;4.104;2023-04-23T09:26:10;99.68;;;37.97;;
23586;SDS011;11971;51.148;4.104;2023-04-23T09:28:45;95.80;;;37.30;;
23586;SDS011;11971;51.148;4.104;2023-04-23T09:33:58;97.20;;;37.38;;
23586;SDS011;11971;51.148;4.104;2023-04-23T09:36:25;100.75;;;38.00;;
23586;SDS011;11971;51.148;4.104;2023-04-23T09:38:54;98.60;;;37.83;;
23586;SDS011;11971;51.148;4.104;2023-04-23T09:41:26;97.15;;;37.53;;
23586;SDS011;11971;51.148;4.104;2023-04-23T09:43:55;98.47;;;37.35;;
23586;SDS011;11971;51.148;4.104;2023-04-23T09:46:31;97.43;;;37.25;;
23586;SDS011;11971;51.148;4.104;2023-04-23T09:49:00;100.20;;;37.60;;
23586;SDS011;11971;51.148;4.104;2023-04-23T09:51:28;98.35;;;37.80;;
23586;SDS011;11971;51.148;4.104;2023-04-23T09:53:57;99.65;;;37.88;;
23586;SDS011;11971;51.148;4.104;2023-04-23T09:56:32;98.03;;;37.65;;
23586;SDS011;11971;51.148;4.104;2023-04-23T09:58:59;95.75;;;37.55;;
23586;SDS011;11971;51.148;4.104;2023-04-23T10:01:26;104.35;;;38.03;;
23586;SDS011;11971;51.148;4.104;2023-04-23T10:03:53;98.10;;;37.33;;
23586;SDS011;11971;51.148;4.104;2023-04-23T10:06:25;97.88;;;37.72;;
23586;SDS011;11971;51.148;4.104;2023-04-23T10:08:55;100.95;;;37.92;;
23586;SDS011;11971;51.148;4.104;2023-04-23T10:11:22;98.82;;;37.92;;
23586;SDS011;11971;51.148;4.104;2023-04-23T10:13:51;102.25;;;37.85;;
23586;SDS011;11971;51.148;4.104;2023-04-23T10:18:46;102.93;;;38.45;;
23586;SDS011;11971;51.148;4.104;2023-04-23T10:21:13;98.35;;;37.55;;
23586;SDS011;11971;51.148;4.104;2023-04-23T10:23:40;96.25;;;37.35;;
23586;SDS011;11971;51.148;4.104;2023-04-23T10:26:08;102.88;;;38.38;;
23586;SDS011;11971;51.148;4.104;2023-04-23T10:28:36;101.60;;;38.00;;
23586;SDS011;11971;51.148;4.104;2023-04-23T10:31:06;97.32;;;37.60;;
23586;SDS011;11971;51.148;4.104;2023-04-23T10:33:33;97.47;;;37.78;;
23586;SDS011;11971;51.148;4.104;2023-04-23T10:36:01;102.13;;;38.05;;
23586;SDS011;11971;51.148;4.104;2023-04-23T10:38:28;97.55;;;37.63;;
23586;SDS011;11971;51.148;4.104;2023-04-23T10:40:55;97.57;;;37.40;;
23586;SDS011;11971;51.148;4.104;2023-04-23T10:43:34;99.70;;;37.33;;
23586;SDS011;11971;51.148;4.104;2023-04-23T10:46:01;98.13;;;37.17;;
23586;SDS011;11971;51.148;4.104;2023-04-23T10:48:28;98.03;;;37.47;;
23586;SDS011;11971;51.148;4.104;2023-04-23T10:50:59;97.75;;;37.70;;
23586;SDS011;11971;51.148;4.104;2023-04-23T10:53:25;96.95;;;37.22;;
23586;SDS011;11971;51.148;4.104;2023-04-23T10:56:03;102.97;;;37.20;;
23586;SDS011;11971;51.148;4.104;2023-04-23T11:01:16;96.80;;;36.97;;
23586;SDS011;11971;51.148;4.104;2023-04-23T11:03:44;95.00;;;37.47;;
23586;SDS011;11971;51.148;4.104;2023-04-23T11:06:12;100.10;;;37.47;;
23586;SDS011;11971;51.148;4.104;2023-04-23T11:08:46;95.85;;;37.13;;
23586;SDS011;11971;51.148;4.104;2023-04-23T11:11:16;98.47;;;37.17;;
23586;SDS011;11971;51.148;4.104;2023-04-23T11:13:51;98.65;;;37.33;;
23586;SDS011;11971;51.148;4.104;2023-04-23T11:16:20;96.60;;;36.88;;
23586;SDS011;11971;51.148;4.104;2023-04-23T11:18:53;99.18;;;37.03;;
23586;SDS011;11971;51.148;4.104;2023-04-23T11:21:21;95.78;;;36.83;;
23586;SDS011;11971;51.148;4.104;2023-04-23T11:23:48;99.63;;;37.30;;
23586;SDS011;11971;51.148;4.104;2023-04-23T11:26:15;96.75;;;37.38;;
23586;SDS011;11971;51.148;4.104;2023-04-23T11:28:43;98.95;;;37.20;;
23586;SDS011;11971;51.148;4.104;2023-04-23T11:31:12;96.22;;;37.45;;
23586;SDS011;11971;51.148;4.104;2023-04-23T11:33:40;96.07;;;37.03;;
23586;SDS011;11971;51.148;4.104;2023-04-23T11:36:07;96.57;;;37.40;;
23586;SDS011;11971;51.148;4.104;2023-04-23T11:38:34;99.65;;;37.33;;
23586;SDS011;11971;51.148;4.104;2023-04-23T11:41:02;98.22;;;37.65;;
23586;SDS011;11971;51.148;4.104;2023-04-23T11:43:30;98.30;;;37.33;;
23586;SDS011;11971;51.148;4.104;2023-04-23T11:45:59;102.88;;;37.60;;
23586;SDS011;11971;51.148;4.104;2023-04-23T11:48:28;96.03;;;37.00;;
23586;SDS011;11971;51.148;4.104;2023-04-23T11:50:55;97.90;;;37.10;;
23586;SDS011;11971;51.148;4.104;2023-04-23T11:53:23;95.03;;;37.27;;
23586;SDS011;11971;51.148;4.104;2023-04-23T11:55:52;98.03;;;37.05;;
23586;SDS011;11971;51.148;4.104;2023-04-23T11:58:20;95.57;;;37.25;;
23586;SDS011;11971;51.148;4.104;2023-04-23T12:00:47;96.72;;;37.08;;
23586;SDS011;11971;51.148;4.104;2023-04-23T12:03:14;95.15;;;36.80;;
23586;SDS011;11971;51.148;4.104;2023-04-23T12:05:43;96.60;;;36.95;;
23586;SDS011;11971;51.148;4.104;2023-04-23T12:08:11;96.03;;;36.85;;
23586;SDS011;11971;51.148;4.104;2023-04-23T12:10:40;101.50;;;37.13;;
23586;SDS011;11971;51.148;4.104;2023-04-23T12:13:12;97.20;;;37.05;;
23586;SDS011;11971;51.148;4.104;2023-04-23T12:15:43;95.82;;;36.95;;
23586;SDS011;11971;51.148;4.104;2023-04-23T12:18:11;95.65;;;36.97;;
23586;SDS011;11971;51.148;4.104;2023-04-23T12:20:37;97.90;;;37.20;;
23586;SDS011;11971;51.148;4.104;2023-04-23T12:23:06;98.35;;;37.30;;
23586;SDS011;11971;51.148;4.104;2023-04-23T12:25:35;95.15;;;37.05;;
23586;SDS011;11971;51.148;4.104;2023-04-23T12:28:02;97.57;;;37.15;;
23586;SDS011;11971;51.148;4.104;2023-04-23T12:30:31;95.40;;;37.13;;
23586;SDS011;11971;51.148;4.104;2023-04-23T12:32:58;96.13;;;37.17;;
23586;SDS011;11971;51.148;4.104;2023-04-23T12:35:36;96.47;;;37.35;;
23586;SDS011;11971;51.148;4.104;2023-04-23T12:38:03;97.60;;;37.47;;
23586;SDS011;11971;51.148;4.104;2023-04-23T12:40:32;95.93;;;37.08;;
23586;SDS011;11971;51.148;4.104;2023-04-23T12:42:58;97.53;;;37.07;;
23586;SDS011;11971;51.148;4.104;2023-04-23T12:45:25;96.68;;;37.25;;
23586;SDS011;11971;51.148;4.104;2023-04-23T12:47:52;94.82;;;36.72;;
23586;SDS011;11971;51.148;4.104;2023-04-23T12:50:19;95.28;;;36.63;;
23586;SDS011;11971;51.148;4.104;2023-04-23T12:52:46;92.20;;;36.45;;
23586;SDS011;11971;51.148;4.104;2023-04-23T12:55:13;96.00;;;36.55;;
23586;SDS011;11971;51.148;4.104;2023-04-23T12:57:41;92.47;;;36.55;;
23586;SDS011;11971;51.148;4.104;2023-04-23T13:00:08;99.13;;;36.63;;
23586;SDS011;11971;51.148;4.104;2023-04-23T13:02:36;93.38;;;36.42;;
23586;SDS011;11971;51.148;4.104;2023-04-23T13:05:03;93.00;;;36.30;;
23586;SDS011;11971;51.148;4.104;2023-04-23T13:07:30;94.47;;;36.50;;
23586;SDS011;11971;51.148;4.104;2023-04-23T13:09:56;93.28;;;36.42;;
23586;SDS011;11971;51.148;4.104;2023-04-23T13:12:24;98.43;;;36.75;;
23586;SDS011;11971;51.148;4.104;2023-04-23T13:14:52;92.68;;;36.25;;
23586;SDS011;11971;51.148;4.104;2023-04-23T13:17:19;91.20;;;36.23;;
23586;SDS011;11971;51.148;4.104;2023-04-23T13:19:47;92.28;;;36.22;;
23586;SDS011;11971;51.148;4.104;2023-04-23T13:22:13;94.32;;;36.33;;
23586;SDS011;11971;51.148;4.104;2023-04-23T13:24:41;94.53;;;36.22;;
23586;SDS011;11971;51.148;4.104;2023-04-23T13:27:08;93.30;;;36.35;;
23586;SDS011;11971;51.148;4.104;2023-04-23T13:29:35;92.65;;;36.38;;
23586;SDS011;11971;51.148;4.104;2023-04-23T13:32:03;94.45;;;36.60;;
23586;SDS011;11971;51.148;4.104;2023-04-23T13:34:30;97.60;;;36.43;;
23586;SDS011;11971;51.148;4.104;2023-04-23T13:36:58;91.63;;;36.38;;
23586;SDS011;11971;51.148;4.104;2023-04-23T13:39:29;96.22;;;36.85;;
23586;SDS011;11971;51.148;4.104;2023-04-23T13:41:56;93.95;;;36.88;;
23586;SDS011;11971;51.148;4.104;2023-04-23T13:44:22;94.25;;;36.95;;
23586;SDS011;11971;51.148;4.104;2023-04-23T13:46:49;93.95;;;36.83;;
23586;SDS011;11971;51.148;4.104;2023-04-23T13:49:17;92.45;;;36.53;;
23586;SDS011;11971;51.148;4.104;2023-04-23T13:51:44;92.82;;;36.83;;
23586;SDS011;11971;51.148;4.104;2023-04-23T13:54:11;92.45;;;36.70;;
23586;SDS011;11971;51.148;4.104;2023-04-23T13:56:37;92.13;;;36.80;;
23586;SDS011;11971;51.148;4.104;2023-04-23T13:59:04;97.63;;;36.97;;
23586;SDS011;11971;51.148;4.104;2023-04-23T14:01:31;90.95;;;36.45;;
23586;SDS011;11971;51.148;4.104;2023-04-23T14:03:58;91.25;;;36.22;;
23586;SDS011;11971;51.148;4.104;2023-04-23T14:06:26;91.90;;;36.58;;
23586;SDS011;11971;51.148;4.104;2023-04-23T14:08:53;96.05;;;36.95;;
23586;SDS011;11971;51.148;4.104;2023-04-23T14:11:20;91.93;;;36.58;;
23586;SDS011;11971;51.148;4.104;2023-04-23T14:13:47;94.00;;;36.55;;
23586;SDS011;11971;51.148;4.104;2023-04-23T14:16:14;91.97;;;36.35;;
23586;SDS011;11971;51.148;4.104;2023-04-23T14:18:41;91.78;;;36.53;;
23586;SDS011;11971;51.148;4.104;2023-04-23T14:21:08;93.95;;;36.55;;
23586;SDS011;11971;51.148;4.104;2023-04-23T14:23:48;90.95;;;36.22;;
23586;SDS011;11971;51.148;4.104;2023-04-23T14:26:20;94.43;;;36.60;;
23586;SDS011;11971;51.148;4.104;2023-04-23T14:28:50;93.13;;;36.47;;
23586;SDS011;11971;51.148;4.104;2023-04-23T14:31:17;93.30;;;36.88;;
23586;SDS011;11971;51.148;4.104;2023-04-23T14:33:43;93.05;;;36.20;;
23586;SDS011;11971;51.148;4.104;2023-04-23T14:36:10;92.20;;;36.28;;
23586;SDS011;11971;51.148;4.104;2023-04-23T14:38:37;91.38;;;36.08;;
23586;SDS011;11971;51.148;4.104;2023-04-23T14:41:05;93.32;;;36.83;;
23586;SDS011;11971;51.148;4.104;2023-04-23T14:43:32;91.70;;;36.80;;
23586;SDS011;11971;51.148;4.104;2023-04-23T14:45:59;91.47;;;36.03;;
23586;SDS011;11971;51.148;4.104;2023-04-23T14:48:26;92.03;;;36.30;;